createdAt,value
2023-05-19T00:00:51.559Z,27.91
2023-05-19T00:01:54.979Z,27.92
2023-05-19T00:02:57.439Z,27.91
2023-05-19T00:04:05.106Z,27.91
2023-05-19T00:05:07.905Z,27.92
2023-05-19T00:06:10.139Z,27.91
2023-05-19T00:07:13.639Z,27.90
2023-05-19T00:08:20.238Z,27.93
2023-05-19T00:09:22.475Z,27.91
2023-05-19T00:10:24.938Z,27.91
2023-05-19T00:11:28.375Z,27.89
2023-05-19T00:12:30.959Z,27.88
2023-05-19T00:13:33.475Z,27.89
2023-05-19T00:14:36.058Z,27.87
2023-05-19T00:15:38.527Z,27.89
2023-05-19T00:16:42.269Z,27.88
2023-05-19T00:17:44.192Z,27.88
2023-05-19T00:18:47.559Z,27.88
2023-05-19T00:19:49.987Z,27.86
2023-05-19T00:20:52.398Z,27.88
2023-05-19T00:21:54.246Z,27.86
2023-05-19T00:22:56.130Z,27.87
2023-05-19T00:23:58.933Z,27.86
2023-05-19T00:25:00.888Z,27.86
2023-05-19T00:26:02.789Z,27.87
2023-05-19T00:27:04.793Z,27.85
2023-05-19T00:28:07.252Z,27.84
2023-05-19T00:29:09.209Z,27.86
2023-05-19T00:30:11.545Z,27.85
2023-05-19T00:31:13.581Z,27.85
2023-05-19T00:32:15.939Z,27.85
2023-05-19T00:33:17.871Z,27.83
2023-05-19T00:34:19.754Z,27.82
2023-05-19T00:35:22.903Z,27.81
2023-05-19T00:36:25.056Z,27.83
2023-05-19T00:37:27.695Z,27.81
2023-05-19T00:38:35.934Z,27.82
2023-05-19T00:39:37.804Z,27.81
2023-05-19T00:40:39.958Z,27.82
2023-05-19T00:41:41.890Z,27.81
2023-05-19T00:42:43.768Z,27.79
2023-05-19T00:43:45.966Z,27.81
2023-05-19T00:44:47.903Z,27.80
2023-05-19T00:45:50.442Z,27.79
2023-05-19T00:46:52.396Z,27.78
2023-05-19T00:47:54.473Z,27.77
2023-05-19T00:48:56.423Z,27.78
2023-05-19T00:49:58.404Z,27.78
2023-05-19T00:51:05.169Z,27.78
2023-05-19T00:52:07.634Z,27.78
2023-05-19T00:53:09.815Z,27.76
2023-05-19T00:54:11.780Z,27.76
2023-05-19T00:55:14.887Z,27.76
2023-05-19T00:56:18.307Z,27.77
2023-05-19T00:57:21.280Z,27.77
2023-05-19T00:58:25.676Z,27.76
2023-05-19T00:59:28.046Z,27.76
2023-05-19T01:00:31.361Z,27.74
2023-05-19T01:01:33.435Z,27.74
2023-05-19T01:02:38.189Z,27.75
2023-05-19T01:03:40.936Z,27.74
2023-05-19T01:04:45.049Z,27.74
2023-05-19T01:05:47.638Z,27.72
2023-05-19T01:06:54.849Z,27.71
2023-05-19T01:07:56.796Z,27.70
2023-05-19T01:08:58.904Z,27.70
2023-05-19T01:10:00.915Z,27.70
2023-05-19T01:11:03.797Z,27.70
2023-05-19T01:12:06.208Z,27.70
2023-05-19T01:13:09.477Z,27.68
2023-05-19T01:14:11.367Z,27.68
2023-05-19T01:15:14.075Z,27.67
2023-05-19T01:16:25.570Z,27.67
2023-05-19T01:17:35.524Z,27.68
2023-05-19T01:19:25.454Z,27.71
2023-05-19T01:20:46.234Z,27.68
2023-05-19T01:22:03.250Z,27.65
2023-05-19T01:23:40.107Z,27.66
2023-05-19T01:25:19.964Z,27.65
2023-05-19T01:26:49.404Z,27.63
2023-05-19T01:28:09.445Z,27.59
2023-05-19T01:30:09.251Z,27.62
2023-05-19T01:31:12.877Z,27.57
2023-05-19T01:32:21.081Z,27.55
2023-05-19T01:33:24.786Z,27.52
2023-05-19T01:34:27.953Z,27.54
2023-05-19T01:35:32.942Z,27.51
2023-05-19T01:36:37.096Z,27.53
2023-05-19T01:37:41.179Z,27.52
2023-05-19T01:38:45.739Z,27.53
2023-05-19T01:39:50.374Z,27.52
2023-05-19T01:40:54.213Z,27.52
2023-05-19T01:41:58.165Z,27.53
2023-05-19T01:43:02.385Z,27.53
2023-05-19T01:44:05.513Z,27.52
2023-05-19T01:45:12.109Z,27.52
2023-05-19T01:46:15.674Z,27.52
2023-05-19T01:47:18.391Z,27.52
2023-05-19T01:48:20.884Z,27.51
2023-05-19T01:49:22.819Z,27.49
2023-05-19T01:50:25.080Z,27.52
2023-05-19T01:51:27.863Z,27.50
2023-05-19T01:52:29.937Z,27.50
2023-05-19T01:53:31.922Z,27.49
2023-05-19T01:54:33.841Z,27.50
2023-05-19T01:55:45.431Z,27.51
2023-05-19T01:57:24.060Z,27.52
2023-05-19T01:58:47.255Z,27.53
2023-05-19T02:00:10.607Z,27.51
2023-05-19T02:01:36.627Z,27.50
2023-05-19T02:03:03.687Z,27.48
2023-05-19T02:04:23.399Z,27.47
2023-05-19T02:05:40.046Z,27.45
2023-05-19T02:07:15.642Z,27.44
2023-05-19T02:08:29.217Z,27.41
2023-05-19T02:09:54.124Z,27.42
2023-05-19T02:11:04.033Z,27.39
2023-05-19T02:12:19.491Z,27.41
2023-05-19T02:13:30.134Z,27.41
2023-05-19T02:14:45.532Z,27.40
2023-05-19T02:15:50.943Z,27.38
2023-05-19T02:16:53.864Z,27.38
2023-05-19T02:18:00.326Z,27.38
2023-05-19T02:19:02.335Z,27.37
2023-05-19T02:20:05.799Z,27.37
2023-05-19T02:21:13.116Z,27.37
2023-05-19T02:22:15.239Z,27.37
2023-05-19T02:23:17.152Z,27.36
2023-05-19T02:24:20.188Z,27.37
2023-05-19T02:25:23.423Z,27.37
2023-05-19T02:26:26.129Z,27.38
2023-05-19T02:27:28.144Z,27.34
2023-05-19T02:28:30.119Z,27.35
2023-05-19T02:29:32.066Z,27.34
2023-05-19T02:30:34.177Z,27.34
2023-05-19T02:31:36.232Z,27.34
2023-05-19T02:32:38.126Z,27.35
2023-05-19T02:33:40.046Z,27.35
2023-05-19T02:34:45.616Z,27.34
2023-05-19T02:35:47.551Z,27.33
2023-05-19T02:36:49.982Z,27.34
2023-05-19T02:37:51.879Z,27.34
2023-05-19T02:38:53.845Z,27.35
2023-05-19T02:39:56.142Z,27.35
2023-05-19T02:40:58.592Z,27.33
2023-05-19T02:42:00.849Z,27.33
2023-05-19T02:43:03.397Z,27.32
2023-05-19T02:44:05.742Z,27.34
2023-05-19T02:45:08.354Z,27.34
2023-05-19T02:46:10.256Z,27.34
2023-05-19T02:47:13.132Z,27.32
2023-05-19T02:48:15.081Z,27.33
2023-05-19T02:49:16.980Z,27.34
2023-05-19T02:50:18.945Z,27.32
2023-05-19T02:51:20.784Z,27.31
2023-05-19T02:52:22.751Z,27.30
2023-05-19T02:53:24.629Z,27.31
2023-05-19T02:54:26.531Z,27.31
2023-05-19T02:55:28.810Z,27.31
2023-05-19T02:56:30.693Z,27.30
2023-05-19T02:57:34.988Z,27.31
2023-05-19T02:58:36.958Z,27.29
2023-05-19T02:59:38.867Z,27.30
2023-05-19T03:00:40.764Z,27.30
2023-05-19T03:01:42.708Z,27.31
2023-05-19T03:02:44.835Z,27.29
2023-05-19T03:03:46.989Z,27.29
2023-05-19T03:04:49.000Z,27.28
2023-05-19T03:05:50.838Z,27.29
2023-05-19T03:06:54.085Z,27.28
2023-05-19T03:07:56.225Z,27.28
2023-05-19T03:08:58.432Z,27.26
2023-05-19T03:10:03.749Z,27.26
2023-05-19T03:11:05.861Z,27.28
2023-05-19T03:12:08.158Z,27.26
2023-05-19T03:13:10.096Z,27.25
2023-05-19T03:14:13.695Z,27.25
2023-05-19T03:15:16.407Z,27.26
2023-05-19T03:16:19.037Z,27.27
2023-05-19T03:17:21.153Z,27.25
2023-05-19T03:18:24.650Z,27.26
2023-05-19T03:19:27.679Z,27.25
2023-05-19T03:20:30.576Z,27.24
2023-05-19T03:21:34.477Z,27.25
2023-05-19T03:22:36.841Z,27.23
2023-05-19T03:23:38.683Z,27.23
2023-05-19T03:24:40.648Z,27.24
2023-05-19T03:25:42.536Z,27.23
2023-05-19T03:26:44.424Z,27.22
2023-05-19T03:27:46.289Z,27.23
2023-05-19T03:28:48.153Z,27.21
2023-05-19T03:29:50.718Z,27.22
2023-05-19T03:30:52.924Z,27.22
2023-05-19T03:31:54.805Z,27.22
2023-05-19T03:32:56.788Z,27.21
2023-05-19T03:33:58.678Z,27.22
2023-05-19T03:35:00.791Z,27.22
2023-05-19T03:36:04.034Z,27.20
2023-05-19T03:37:05.904Z,27.21
2023-05-19T03:38:07.830Z,27.22
2023-05-19T03:39:09.741Z,27.20
2023-05-19T03:40:12.367Z,27.20
2023-05-19T03:41:14.228Z,27.20
2023-05-19T03:42:16.281Z,27.18
2023-05-19T03:43:18.443Z,27.17
2023-05-19T03:44:20.325Z,27.18
2023-05-19T03:45:22.149Z,27.17
2023-05-19T03:46:24.157Z,27.16
2023-05-19T03:47:26.146Z,27.15
2023-05-19T03:48:28.064Z,27.16
2023-05-19T03:49:29.926Z,27.16
2023-05-19T03:50:31.976Z,27.16
2023-05-19T03:51:34.827Z,27.15
2023-05-19T03:52:36.697Z,27.13
2023-05-19T03:53:38.827Z,27.13
2023-05-19T03:54:42.640Z,27.13
2023-05-19T03:55:44.787Z,27.13
2023-05-19T03:56:46.656Z,27.13
2023-05-19T03:57:48.789Z,27.13
2023-05-19T03:58:50.748Z,27.14
2023-05-19T03:59:52.628Z,27.12
2023-05-19T04:00:54.521Z,27.11
2023-05-19T04:01:57.728Z,27.12
2023-05-19T04:03:00.613Z,27.11
2023-05-19T04:04:03.359Z,27.11
2023-05-19T04:05:05.599Z,27.11
2023-05-19T04:06:08.202Z,27.11
2023-05-19T04:07:10.094Z,27.11
2023-05-19T04:08:12.060Z,27.10
2023-05-19T04:09:16.101Z,27.11
2023-05-19T04:10:19.057Z,27.11
2023-05-19T04:11:21.452Z,27.10
2023-05-19T04:12:23.685Z,27.10
2023-05-19T04:13:25.710Z,27.11
2023-05-19T04:14:27.556Z,27.08
2023-05-19T04:15:29.633Z,27.08
2023-05-19T04:16:31.789Z,27.09
2023-05-19T04:17:33.907Z,27.09
2023-05-19T04:18:35.930Z,27.08
2023-05-19T04:19:37.890Z,27.08
2023-05-19T04:20:39.778Z,27.10
2023-05-19T04:21:41.737Z,27.05
2023-05-19T04:22:43.750Z,27.07
2023-05-19T04:23:45.652Z,27.07
2023-05-19T04:24:48.647Z,27.06
2023-05-19T04:25:50.804Z,27.06
2023-05-19T04:26:53.664Z,27.06
2023-05-19T04:27:57.861Z,27.05
2023-05-19T04:29:01.831Z,27.08
2023-05-19T04:30:05.689Z,27.06
2023-05-19T04:31:11.183Z,27.04
2023-05-19T04:32:17.712Z,27.05
2023-05-19T04:33:20.109Z,27.04
2023-05-19T04:34:22.308Z,27.05
2023-05-19T04:35:24.752Z,27.05
2023-05-19T04:36:27.572Z,27.04
2023-05-19T04:37:29.977Z,27.05
2023-05-19T04:38:31.903Z,27.03
2023-05-19T04:39:33.817Z,27.03
2023-05-19T04:40:35.905Z,27.01
2023-05-19T04:41:40.396Z,27.03
2023-05-19T04:42:42.813Z,27.03
2023-05-19T04:43:44.820Z,27.01
2023-05-19T04:44:49.261Z,27.02
2023-05-19T04:45:51.515Z,27.03
2023-05-19T04:46:54.358Z,27.02
2023-05-19T04:47:58.155Z,27.02
2023-05-19T04:49:01.370Z,27.03
2023-05-19T04:50:05.184Z,27.01
2023-05-19T04:51:07.510Z,27.01
2023-05-19T04:52:11.684Z,27.02
2023-05-19T04:53:13.621Z,27.03
2023-05-19T04:54:15.823Z,27.02
2023-05-19T04:55:17.737Z,27.01
2023-05-19T04:56:19.659Z,27.03
2023-05-19T04:57:21.600Z,27.02
2023-05-19T04:58:26.551Z,27.02
2023-05-19T04:59:28.468Z,27.03
2023-05-19T05:00:30.356Z,27.04
2023-05-19T05:01:33.003Z,27.02
2023-05-19T05:02:35.194Z,27.03
2023-05-19T05:03:37.316Z,27.06
2023-05-19T05:04:42.694Z,27.05
2023-05-19T05:05:44.735Z,27.05
2023-05-19T05:06:48.015Z,27.07
2023-05-19T05:07:50.282Z,27.06
2023-05-19T05:08:53.077Z,27.05
2023-05-19T05:09:55.007Z,27.05
2023-05-19T05:10:57.439Z,27.07
2023-05-19T05:11:59.939Z,27.09
2023-05-19T05:13:02.180Z,27.10
2023-05-19T05:14:04.435Z,27.09
2023-05-19T05:15:07.518Z,27.07
2023-05-19T05:16:10.416Z,27.09
2023-05-19T05:17:13.650Z,27.10
2023-05-19T05:18:16.611Z,27.08
2023-05-19T05:19:19.194Z,27.11
2023-05-19T05:20:22.505Z,27.09
2023-05-19T05:21:24.935Z,27.10
2023-05-19T05:22:27.294Z,27.09
2023-05-19T05:23:29.581Z,27.11
2023-05-19T05:24:31.983Z,27.10
2023-05-19T05:25:34.574Z,27.11
2023-05-19T05:26:37.048Z,27.10
2023-05-19T05:27:38.985Z,27.11
2023-05-19T05:28:41.979Z,27.10
2023-05-19T05:29:43.938Z,27.13
2023-05-19T05:30:46.346Z,27.12
2023-05-19T05:31:48.198Z,27.12
2023-05-19T05:32:50.376Z,27.13
2023-05-19T05:33:52.555Z,27.14
2023-05-19T05:34:54.631Z,27.13
2023-05-19T05:35:56.543Z,27.13
2023-05-19T05:36:58.493Z,27.14
2023-05-19T05:38:01.630Z,27.13
2023-05-19T05:39:03.882Z,27.14
2023-05-19T05:40:07.132Z,27.14
2023-05-19T05:41:09.072Z,27.13
2023-05-19T05:42:11.266Z,27.14
2023-05-19T05:43:13.214Z,27.15
2023-05-19T05:44:15.060Z,27.15
2023-05-19T05:45:17.126Z,27.15
2023-05-19T05:46:19.033Z,27.14
2023-05-19T05:47:21.470Z,27.15
2023-05-19T05:48:23.885Z,27.13
2023-05-19T05:49:26.535Z,27.17
2023-05-19T05:50:28.840Z,27.17
2023-05-19T05:51:32.932Z,27.15
2023-05-19T05:52:37.580Z,27.17
2023-05-19T05:53:43.292Z,27.19
2023-05-19T05:54:46.282Z,27.18
2023-05-19T05:55:48.956Z,27.18
2023-05-19T05:56:51.255Z,27.16
2023-05-19T05:57:53.275Z,27.17
2023-05-19T05:58:55.264Z,27.18
2023-05-19T05:59:57.557Z,27.19
2023-05-19T06:00:59.732Z,27.19
2023-05-19T06:02:01.903Z,27.19
2023-05-19T06:03:04.604Z,27.19
2023-05-19T06:04:06.578Z,27.21
2023-05-19T06:05:12.378Z,27.21
2023-05-19T06:06:14.516Z,27.21
2023-05-19T06:07:16.377Z,27.20
2023-05-19T06:08:18.274Z,27.20
2023-05-19T06:09:20.210Z,27.21
2023-05-19T06:10:22.363Z,27.21
2023-05-19T06:11:24.988Z,27.22
2023-05-19T06:12:27.258Z,27.23
2023-05-19T06:13:29.063Z,27.22
2023-05-19T06:14:30.989Z,27.21
2023-05-19T06:15:32.928Z,27.23
2023-05-19T06:16:34.904Z,27.23
2023-05-19T06:17:36.996Z,27.24
2023-05-19T06:18:38.992Z,27.25
2023-05-19T06:19:41.057Z,27.23
2023-05-19T06:20:43.038Z,27.23
2023-05-19T06:21:45.075Z,27.25
2023-05-19T06:22:47.339Z,27.24
2023-05-19T06:23:49.194Z,27.24
2023-05-19T06:24:52.323Z,27.24
2023-05-19T06:25:54.183Z,27.25
2023-05-19T06:26:56.034Z,27.23
2023-05-19T06:27:58.064Z,27.24
2023-05-19T06:28:59.948Z,27.23
2023-05-19T06:30:02.254Z,27.25
2023-05-19T06:31:04.246Z,27.23
2023-05-19T06:32:06.179Z,27.24
2023-05-19T06:33:08.251Z,27.26
2023-05-19T06:34:12.282Z,27.25
2023-05-19T06:35:16.164Z,27.25
2023-05-19T06:36:18.042Z,27.24
2023-05-19T06:37:23.792Z,27.26
2023-05-19T06:38:25.872Z,27.27
2023-05-19T06:39:27.960Z,27.26
2023-05-19T06:40:29.964Z,27.28
2023-05-19T06:41:31.872Z,27.28
2023-05-19T06:42:34.076Z,27.29
2023-05-19T06:43:35.979Z,27.27
2023-05-19T06:44:37.872Z,27.28
2023-05-19T06:45:39.832Z,27.29
2023-05-19T06:46:41.892Z,27.29
2023-05-19T06:47:45.053Z,27.31
2023-05-19T06:48:46.990Z,27.31
2023-05-19T06:49:55.349Z,27.32
2023-05-19T06:50:57.645Z,27.31
2023-05-19T06:51:59.541Z,27.33
2023-05-19T06:53:01.832Z,27.33
2023-05-19T06:54:03.853Z,27.35
2023-05-19T06:55:06.465Z,27.35
2023-05-19T06:56:08.410Z,27.35
2023-05-19T06:57:10.221Z,27.36
2023-05-19T06:58:12.099Z,27.37
2023-05-19T06:59:14.020Z,27.38
2023-05-19T07:00:19.939Z,27.39
2023-05-19T07:01:23.936Z,27.40
2023-05-19T07:02:25.832Z,27.41
2023-05-19T07:03:27.766Z,27.40
2023-05-19T07:04:29.730Z,27.41
2023-05-19T07:05:31.658Z,27.41
2023-05-19T07:06:33.904Z,27.42
2023-05-19T07:07:36.176Z,27.44
2023-05-19T07:08:38.154Z,27.43
2023-05-19T07:09:40.160Z,27.45
2023-05-19T07:10:42.050Z,27.43
2023-05-19T07:11:43.895Z,27.44
2023-05-19T07:12:45.847Z,27.43
2023-05-19T07:13:47.723Z,27.46
2023-05-19T07:14:49.607Z,27.45
2023-05-19T07:15:52.495Z,27.46
2023-05-19T07:16:54.683Z,27.47
2023-05-19T07:17:58.446Z,27.50
2023-05-19T07:19:00.418Z,27.48
2023-05-19T07:20:02.505Z,27.49
2023-05-19T07:21:04.508Z,27.50
2023-05-19T07:22:06.387Z,27.51
2023-05-19T07:23:08.262Z,27.51
2023-05-19T07:24:10.111Z,27.50
2023-05-19T07:25:12.002Z,27.50
2023-05-19T07:26:13.810Z,27.50
2023-05-19T07:27:15.671Z,27.50
2023-05-19T07:28:17.534Z,27.53
2023-05-19T07:29:19.458Z,27.55
2023-05-19T07:30:21.404Z,27.55
2023-05-19T07:31:23.459Z,27.53
2023-05-19T07:32:25.936Z,27.54
2023-05-19T07:33:27.950Z,27.54
2023-05-19T07:34:29.811Z,27.55
2023-05-19T07:35:31.711Z,27.55
2023-05-19T07:36:34.188Z,27.55
2023-05-19T07:37:36.155Z,27.56
2023-05-19T07:38:38.346Z,27.58
2023-05-19T07:39:40.292Z,27.57
2023-05-19T07:40:42.238Z,27.58
2023-05-19T07:41:44.302Z,27.56
2023-05-19T07:42:46.296Z,27.58
2023-05-19T07:43:48.279Z,27.59
2023-05-19T07:44:50.161Z,27.61
2023-05-19T07:45:53.512Z,27.61
2023-05-19T07:46:55.552Z,27.62
2023-05-19T07:47:57.480Z,27.62
2023-05-19T07:48:59.375Z,27.62
2023-05-19T07:50:01.376Z,27.63
2023-05-19T07:51:03.498Z,27.64
2023-05-19T07:52:05.715Z,27.63
2023-05-19T07:53:07.616Z,27.65
2023-05-19T07:54:09.596Z,27.65
2023-05-19T07:55:11.722Z,27.63
2023-05-19T07:56:13.590Z,27.66
2023-05-19T07:57:16.050Z,27.66
2023-05-19T07:58:18.058Z,27.66
2023-05-19T07:59:19.944Z,27.68
2023-05-19T08:00:21.885Z,27.67
2023-05-19T08:01:23.749Z,27.66
2023-05-19T08:02:25.805Z,27.65
2023-05-19T08:03:28.145Z,27.69
2023-05-19T08:04:30.186Z,27.69
2023-05-19T08:05:32.142Z,27.70
2023-05-19T08:06:35.180Z,27.70
2023-05-19T08:07:37.158Z,27.69
2023-05-19T08:08:39.416Z,27.70
2023-05-19T08:09:41.345Z,27.71
2023-05-19T08:10:43.645Z,27.71
2023-05-19T08:11:46.934Z,27.72
2023-05-19T08:12:48.830Z,27.71
2023-05-19T08:13:50.882Z,27.71
2023-05-19T08:14:52.783Z,27.72
2023-05-19T08:15:59.582Z,27.71
2023-05-19T08:17:01.960Z,27.73
2023-05-19T08:18:05.471Z,27.73
2023-05-19T08:19:07.625Z,27.75
2023-05-19T08:20:10.365Z,27.73
2023-05-19T08:21:12.255Z,27.72
2023-05-19T08:22:14.119Z,27.74
2023-05-19T08:23:15.970Z,27.76
2023-05-19T08:24:17.946Z,27.75
2023-05-19T08:25:20.008Z,27.76
2023-05-19T08:26:21.874Z,27.77
2023-05-19T08:27:24.264Z,27.77
2023-05-19T08:28:26.194Z,27.78
2023-05-19T08:29:28.245Z,27.77
2023-05-19T08:30:30.174Z,27.78
2023-05-19T08:31:32.592Z,27.78
2023-05-19T08:32:34.579Z,27.80
2023-05-19T08:33:36.515Z,27.79
2023-05-19T08:34:39.468Z,27.80
2023-05-19T08:35:41.443Z,27.82
2023-05-19T08:36:45.307Z,27.80
2023-05-19T08:37:47.633Z,27.82
2023-05-19T08:38:49.521Z,27.81
2023-05-19T08:39:51.396Z,27.81
2023-05-19T08:40:53.503Z,27.83
2023-05-19T08:41:55.800Z,27.82
2023-05-19T08:42:58.266Z,27.83
2023-05-19T08:44:00.375Z,27.84
2023-05-19T08:45:03.220Z,27.85
2023-05-19T08:46:06.975Z,27.84
2023-05-19T08:47:14.214Z,27.85
2023-05-19T08:48:19.321Z,27.86
2023-05-19T08:49:30.387Z,27.87
2023-05-19T08:50:41.981Z,27.87
2023-05-19T08:52:32.796Z,27.91
2023-05-19T08:53:43.931Z,27.88
2023-05-19T08:55:06.350Z,27.88
2023-05-19T08:56:16.398Z,27.87
2023-05-19T08:57:19.060Z,27.86
2023-05-19T08:58:22.647Z,27.85
2023-05-19T08:59:24.642Z,27.86
2023-05-19T09:00:27.031Z,27.86
2023-05-19T09:01:30.406Z,27.86
2023-05-19T09:02:33.539Z,27.86
2023-05-19T09:03:39.386Z,27.88
2023-05-19T09:04:45.845Z,27.88
2023-05-19T09:05:48.959Z,27.88
2023-05-19T09:06:51.507Z,27.89
2023-05-19T09:07:53.508Z,27.88
2023-05-19T09:08:55.417Z,27.87
2023-05-19T09:09:57.263Z,27.91
2023-05-19T09:11:02.791Z,27.90
2023-05-19T09:12:04.876Z,27.91
2023-05-19T09:13:06.846Z,27.90
2023-05-19T09:14:08.676Z,27.92
2023-05-19T09:15:12.742Z,27.91
2023-05-19T09:16:14.772Z,27.93
2023-05-19T09:17:18.630Z,27.94
2023-05-19T09:18:20.841Z,27.94
2023-05-19T09:19:22.917Z,27.96
2023-05-19T09:20:26.490Z,27.96
2023-05-19T09:21:32.608Z,27.97
2023-05-19T09:22:36.467Z,27.97
2023-05-19T09:23:38.420Z,27.98
2023-05-19T09:24:41.470Z,27.98
2023-05-19T09:25:53.970Z,28.00
2023-05-19T09:27:00.433Z,28.00
2023-05-19T09:28:02.713Z,28.00
2023-05-19T09:29:16.462Z,28.02
2023-05-19T09:30:19.732Z,28.00
2023-05-19T09:31:22.485Z,28.00
2023-05-19T09:32:28.061Z,28.01
2023-05-19T09:33:32.461Z,28.02
2023-05-19T09:34:34.341Z,28.02
2023-05-19T09:35:37.111Z,28.02
2023-05-19T09:36:42.147Z,28.02
2023-05-19T09:37:46.307Z,28.03
2023-05-19T09:38:48.191Z,28.04
2023-05-19T09:39:52.626Z,28.04
2023-05-19T09:40:58.390Z,28.06
2023-05-19T09:42:06.244Z,28.07
2023-05-19T09:43:08.605Z,28.07
2023-05-19T09:44:28.817Z,28.08
2023-05-19T09:45:30.813Z,28.07
2023-05-19T09:46:35.847Z,28.07
2023-05-19T09:47:42.118Z,28.08
2023-05-19T09:48:44.124Z,28.09
2023-05-19T09:49:48.901Z,28.08
2023-05-19T09:50:52.831Z,28.11
2023-05-19T09:51:56.701Z,28.12
2023-05-19T09:52:58.890Z,28.13
2023-05-19T09:54:01.457Z,28.14
2023-05-19T09:55:09.738Z,28.16
2023-05-19T09:56:12.417Z,28.15
2023-05-19T09:57:14.281Z,28.16
2023-05-19T09:58:20.509Z,28.20
2023-05-19T09:59:26.160Z,28.20
2023-05-19T10:00:30.700Z,28.21
2023-05-19T10:01:36.717Z,28.22
2023-05-19T10:02:44.080Z,28.25
2023-05-19T10:03:46.328Z,28.25
2023-05-19T10:04:51.819Z,28.25
2023-05-19T10:05:58.039Z,28.27
2023-05-19T10:08:29.987Z,28.28
2023-05-19T10:09:34.164Z,28.27
2023-05-19T10:10:39.240Z,28.30
2023-05-19T10:11:42.048Z,28.32
2023-05-19T10:12:48.882Z,28.32
2023-05-19T10:13:53.893Z,28.33
2023-05-19T10:14:57.086Z,28.32
2023-05-19T10:16:00.788Z,28.34
2023-05-19T10:17:03.890Z,28.34
2023-05-19T10:18:09.612Z,28.37
2023-05-19T10:19:14.195Z,28.38
2023-05-19T10:20:17.796Z,28.39
2023-05-19T10:21:19.705Z,28.38
2023-05-19T10:22:22.289Z,28.39
2023-05-19T10:23:24.284Z,28.39
2023-05-19T10:24:26.754Z,28.41
2023-05-19T10:25:33.041Z,28.40
2023-05-19T10:26:36.191Z,28.39
2023-05-19T10:27:50.071Z,28.40
2023-05-19T10:28:52.678Z,28.40
2023-05-19T10:29:59.085Z,28.41
2023-05-19T10:31:07.548Z,28.38
2023-05-19T10:32:21.095Z,28.39
2023-05-19T10:33:39.490Z,28.41
2023-05-19T10:34:53.452Z,28.38
2023-05-19T10:36:23.038Z,28.39
2023-05-19T10:37:57.683Z,28.40
2023-05-19T10:39:17.112Z,28.36
2023-05-19T10:40:33.669Z,28.37
2023-05-19T10:41:41.427Z,28.33
2023-05-19T10:43:15.603Z,28.38
2023-05-19T10:45:08.418Z,28.38
2023-05-19T10:46:10.534Z,28.34
2023-05-19T10:47:12.745Z,28.32
2023-05-19T10:48:17.200Z,28.32
2023-05-19T10:49:23.159Z,28.33
2023-05-19T10:50:25.848Z,28.30
2023-05-19T10:51:36.082Z,28.32
2023-05-19T10:52:40.402Z,28.32
2023-05-19T10:53:46.568Z,28.32
2023-05-19T10:54:48.959Z,28.32
2023-05-19T10:56:04.400Z,28.33
2023-05-19T10:57:07.095Z,28.34
2023-05-19T10:58:09.096Z,28.33
2023-05-19T10:59:35.013Z,28.39
2023-05-19T11:00:41.177Z,28.34
2023-05-19T11:01:43.391Z,28.35
2023-05-19T11:02:46.044Z,28.34
2023-05-19T11:03:53.221Z,28.35
2023-05-19T11:04:58.407Z,28.34
2023-05-19T11:06:24.961Z,28.39
2023-05-19T11:07:27.231Z,28.36
2023-05-19T11:08:35.146Z,28.36
2023-05-19T11:09:43.508Z,28.36
2023-05-19T11:10:46.427Z,28.34
2023-05-19T11:11:55.269Z,28.35
2023-05-19T11:13:00.795Z,28.37
2023-05-19T11:14:04.453Z,28.36
2023-05-19T11:15:11.552Z,28.36
2023-05-19T11:16:14.079Z,28.37
2023-05-19T11:17:16.386Z,28.38
2023-05-19T11:18:20.365Z,28.37
2023-05-19T11:19:35.384Z,28.39
2023-05-19T11:20:39.495Z,28.39
2023-05-19T11:21:52.662Z,28.40
2023-05-19T11:23:08.116Z,28.40
2023-05-19T11:24:10.446Z,28.39
2023-05-19T11:25:12.310Z,28.39
2023-05-19T11:26:14.231Z,28.41
2023-05-19T11:27:38.108Z,28.43
2023-05-19T11:28:41.094Z,28.40
2023-05-19T11:29:43.353Z,28.39
2023-05-19T11:30:50.912Z,28.40
2023-05-19T11:31:53.080Z,28.39
2023-05-19T11:32:55.590Z,28.40
2023-05-19T11:33:58.237Z,28.40
2023-05-19T11:35:01.000Z,28.37
2023-05-19T11:36:04.292Z,28.36
2023-05-19T11:37:07.620Z,28.37
2023-05-19T11:38:11.505Z,28.38
2023-05-19T11:39:15.257Z,28.38
2023-05-19T11:40:18.505Z,28.39
2023-05-19T11:41:21.215Z,28.39
2023-05-19T11:42:23.927Z,28.39
2023-05-19T11:43:26.600Z,28.39
2023-05-19T11:44:28.511Z,28.38
2023-05-19T11:45:33.003Z,28.38
2023-05-19T11:46:35.630Z,28.40
2023-05-19T11:47:51.653Z,28.37
2023-05-19T11:48:59.820Z,28.40
2023-05-19T11:50:01.874Z,28.37
2023-05-19T11:51:06.477Z,28.36
2023-05-19T11:52:08.609Z,28.33
2023-05-19T11:53:15.139Z,28.33
2023-05-19T11:54:19.178Z,28.27
2023-05-19T11:55:22.213Z,28.25
2023-05-19T11:56:24.205Z,28.22
2023-05-19T11:57:26.380Z,28.20
2023-05-19T11:58:28.315Z,28.18
2023-05-19T11:59:36.429Z,28.15
2023-05-19T12:00:41.029Z,28.13
2023-05-19T12:01:43.119Z,28.13
2023-05-19T12:02:45.245Z,28.12
2023-05-19T12:03:47.551Z,28.12
2023-05-19T12:04:49.710Z,28.12
2023-05-19T12:05:53.761Z,28.12
2023-05-19T12:06:55.774Z,28.14
2023-05-19T12:07:58.263Z,28.14
2023-05-19T12:09:00.955Z,28.15
2023-05-19T12:10:03.838Z,28.17
2023-05-19T12:11:06.560Z,28.16
2023-05-19T12:12:08.603Z,28.16
2023-05-19T12:13:11.322Z,28.15
2023-05-19T12:14:13.262Z,28.16
2023-05-19T12:15:16.626Z,28.12
2023-05-19T12:16:21.124Z,28.10
2023-05-19T12:17:25.964Z,28.11
2023-05-19T12:18:33.779Z,28.07
2023-05-19T12:19:35.751Z,28.07
2023-05-19T12:20:37.969Z,28.03
2023-05-19T12:21:40.964Z,28.02
2023-05-19T12:22:44.081Z,27.99
2023-05-19T12:23:46.234Z,27.98
2023-05-19T12:24:49.415Z,27.97
2023-05-19T12:25:51.774Z,27.97
2023-05-19T12:27:14.079Z,27.98
2023-05-19T12:28:16.731Z,27.95
2023-05-19T12:29:18.588Z,27.93
2023-05-19T12:30:29.544Z,27.92
2023-05-19T12:31:31.639Z,27.89
2023-05-19T12:32:37.846Z,27.87
2023-05-19T12:33:40.166Z,27.85
2023-05-19T12:34:42.660Z,27.83
2023-05-19T12:35:47.923Z,27.81
2023-05-19T12:36:50.197Z,27.80
2023-05-19T12:37:52.260Z,27.79
2023-05-19T12:38:55.643Z,27.77
2023-05-19T12:39:57.885Z,27.77
2023-05-19T12:41:00.195Z,27.76
2023-05-19T12:42:08.784Z,27.77
2023-05-19T12:43:23.524Z,27.74
2023-05-19T12:44:25.629Z,27.72
2023-05-19T12:45:28.698Z,27.72
2023-05-19T12:46:33.382Z,27.69
2023-05-19T12:47:36.658Z,27.67
2023-05-19T12:48:46.027Z,27.66
2023-05-19T12:50:00.811Z,27.64
2023-05-19T12:51:02.746Z,27.61
2023-05-19T12:52:10.497Z,27.57
2023-05-19T12:53:15.515Z,27.55
2023-05-19T12:54:21.693Z,27.53
2023-05-19T12:55:23.691Z,27.51
2023-05-19T12:56:27.049Z,27.49
2023-05-19T12:57:32.082Z,27.48
2023-05-19T12:58:34.449Z,27.45
2023-05-19T12:59:38.857Z,27.47
2023-05-19T13:00:51.493Z,27.43
2023-05-19T13:01:57.884Z,27.43
2023-05-19T13:03:01.526Z,27.40
2023-05-19T13:04:06.047Z,27.38
2023-05-19T13:05:08.602Z,27.36
2023-05-19T13:06:10.886Z,27.36
2023-05-19T13:07:13.652Z,27.34
2023-05-19T13:08:20.096Z,27.35
2023-05-19T13:09:22.212Z,27.32
2023-05-19T13:10:27.698Z,27.31
2023-05-19T13:11:29.973Z,27.29
2023-05-19T13:12:31.872Z,27.30
2023-05-19T13:13:35.415Z,27.28
2023-05-19T13:14:37.692Z,27.27
2023-05-19T13:15:45.341Z,27.26
2023-05-19T13:16:47.486Z,27.24
2023-05-19T13:17:49.510Z,27.25
2023-05-19T13:18:51.590Z,27.25
2023-05-19T13:19:53.722Z,27.24
2023-05-19T13:20:56.000Z,27.24
2023-05-19T13:21:58.714Z,27.25
2023-05-19T13:23:01.332Z,27.25
2023-05-19T13:24:04.927Z,27.26
2023-05-19T13:25:07.647Z,27.26
2023-05-19T13:26:11.510Z,27.27
2023-05-19T13:27:13.330Z,27.29
2023-05-19T13:28:15.316Z,27.31
2023-05-19T13:29:17.244Z,27.31
2023-05-19T13:30:19.527Z,27.32
2023-05-19T13:31:21.634Z,27.33
2023-05-19T13:32:24.200Z,27.32
2023-05-19T13:33:26.373Z,27.35
2023-05-19T13:34:28.282Z,27.35
2023-05-19T13:35:36.715Z,27.37
2023-05-19T13:36:39.226Z,27.39
2023-05-19T13:37:44.307Z,27.42
2023-05-19T13:38:46.252Z,27.40
2023-05-19T13:39:48.189Z,27.41
2023-05-19T13:40:50.193Z,27.41
2023-05-19T13:41:52.183Z,27.41
2023-05-19T13:42:54.923Z,27.41
2023-05-19T13:44:01.654Z,27.42
2023-05-19T13:45:04.250Z,27.43
2023-05-19T13:46:06.273Z,27.44
2023-05-19T13:47:08.128Z,27.45
2023-05-19T13:48:11.803Z,27.45
2023-05-19T13:49:13.700Z,27.44
2023-05-19T13:50:15.667Z,27.47